createdAt,value
2022-09-28T00:01:24.207Z,96096.69
2022-09-28T00:03:54.696Z,96103.91
2022-09-28T00:06:24.805Z,96105.78
2022-09-28T00:08:52.897Z,96096.72
2022-09-28T00:11:22.237Z,96104.94
2022-09-28T00:13:56.691Z,96102.84
2022-09-28T00:16:28.003Z,96093.31
2022-09-28T00:18:56.179Z,96092.28
2022-09-28T00:21:26.299Z,96088.03
2022-09-28T00:24:14.828Z,96088.31
2022-09-28T00:26:54.307Z,96079.34
2022-09-28T00:29:22.108Z,96082.59
2022-09-28T00:31:52.650Z,96076.00
2022-09-28T00:34:20.948Z,96071.72
2022-09-28T00:36:49.286Z,96069.84
2022-09-28T00:39:17.796Z,96067.72
2022-09-28T00:41:47.175Z,96068.25
2022-09-28T00:44:26.790Z,96068.50
2022-09-28T00:46:58.777Z,96058.16
2022-09-28T00:49:40.555Z,96061.91
2022-09-28T00:52:13.026Z,96060.56
2022-09-28T00:54:45.465Z,96057.94
2022-09-28T00:57:14.384Z,96053.91
2022-09-28T00:59:43.226Z,96048.28
2022-09-28T01:02:11.081Z,96055.22
2022-09-28T01:04:39.066Z,96046.47
2022-09-28T01:07:09.056Z,96049.38
2022-09-28T01:09:40.606Z,96044.84
2022-09-28T01:12:08.575Z,96042.47
2022-09-28T01:14:36.307Z,96053.31
2022-09-28T01:17:24.765Z,96048.78
2022-09-28T01:20:33.167Z,96046.88
2022-09-28T01:23:13.309Z,96047.19
2022-09-28T01:25:54.115Z,96042.44
2022-09-28T01:28:28.216Z,96043.50
2022-09-28T01:31:27.325Z,96039.22
2022-09-28T01:34:00.507Z,96027.28
2022-09-28T01:36:43.875Z,96036.88
2022-09-28T01:39:16.913Z,96035.53
2022-09-28T01:41:48.316Z,96039.25
2022-09-28T01:44:20.096Z,96031.56
2022-09-28T01:46:49.936Z,96036.59
2022-09-28T01:49:31.129Z,96033.13
2022-09-28T01:52:35.035Z,96036.31
2022-09-28T01:55:30.985Z,96036.00
2022-09-28T01:58:21.807Z,96034.69
2022-09-28T02:00:55.423Z,96036.78
2022-09-28T02:03:29.765Z,96031.47
2022-09-28T02:06:11.438Z,96037.28
2022-09-28T02:09:03.436Z,96031.75
2022-09-28T02:11:44.986Z,96030.41
2022-09-28T02:14:17.176Z,96026.69
2022-09-28T02:16:54.446Z,96031.25
2022-09-28T02:19:30.336Z,96027.06
2022-09-28T02:22:07.166Z,96031.84
2022-09-28T02:24:42.666Z,96030.22
2022-09-28T02:27:40.226Z,96024.63
2022-09-28T02:30:08.816Z,96022.53
2022-09-28T02:32:42.814Z,96025.94
2022-09-28T02:35:17.357Z,96015.34
2022-09-28T02:37:47.108Z,96018.28
2022-09-28T02:40:28.430Z,96014.03
2022-09-28T02:43:08.977Z,96014.53
2022-09-28T02:45:45.640Z,96015.59
2022-09-28T02:48:43.528Z,96006.81
2022-09-28T02:51:25.047Z,95999.66
2022-09-28T02:54:18.880Z,96001.47
2022-09-28T02:57:07.106Z,96004.94
2022-09-28T02:59:46.386Z,95998.00
2022-09-28T03:02:26.205Z,95999.81
2022-09-28T03:05:19.786Z,95997.44
2022-09-28T03:08:00.028Z,95995.34
2022-09-28T03:10:45.806Z,95987.59
2022-09-28T03:13:16.503Z,95992.88
2022-09-28T03:15:48.656Z,95981.25
2022-09-28T03:18:17.756Z,95981.78
2022-09-28T03:20:45.555Z,95976.69
2022-09-28T03:23:24.405Z,95972.69
2022-09-28T03:25:52.880Z,95980.03
2022-09-28T03:28:21.568Z,95973.41
2022-09-28T03:30:50.379Z,95966.75
2022-09-28T03:33:19.909Z,95968.81
2022-09-28T03:35:49.056Z,95970.38
2022-09-28T03:38:21.306Z,95977.78
2022-09-28T03:40:57.360Z,95970.59
2022-09-28T03:43:27.378Z,95969.28
2022-09-28T03:46:01.753Z,95978.63
2022-09-28T03:48:33.165Z,95982.34
2022-09-28T03:51:03.337Z,95992.38
2022-09-28T03:53:30.936Z,95990.53
2022-09-28T03:56:13.987Z,95978.56
2022-09-28T03:58:42.712Z,95986.00
2022-09-28T04:01:16.815Z,95992.59
2022-09-28T04:03:47.274Z,95991.50
2022-09-28T04:06:15.430Z,95976.41
2022-09-28T04:08:43.562Z,95976.13
2022-09-28T04:11:11.993Z,95969.25
2022-09-28T04:13:39.736Z,95962.66
2022-09-28T04:16:11.764Z,95948.66
2022-09-28T04:18:43.986Z,95937.03
2022-09-28T04:21:30.057Z,95943.69
2022-09-28T04:24:04.651Z,95931.72
2022-09-28T04:26:32.396Z,95937.53
2022-09-28T04:29:18.288Z,95942.81
2022-09-28T04:32:06.109Z,95945.13
2022-09-28T04:34:39.682Z,95944.31
2022-09-28T04:37:10.866Z,95936.53
2022-09-28T04:39:43.012Z,95936.03
2022-09-28T04:42:13.327Z,95920.84
2022-09-28T04:44:40.995Z,95918.25
2022-09-28T04:47:10.606Z,95917.47
2022-09-28T04:49:56.869Z,95906.59
2022-09-28T04:52:32.175Z,95901.31
2022-09-28T04:54:59.887Z,95902.59
2022-09-28T04:57:27.427Z,95898.66
2022-09-28T04:59:55.627Z,95897.09
2022-09-28T05:02:23.297Z,95888.34
2022-09-28T05:05:09.276Z,95888.66
2022-09-28T05:07:46.196Z,95889.34
2022-09-28T05:10:13.950Z,95890.22
2022-09-28T05:12:41.830Z,95887.03
2022-09-28T05:15:10.641Z,95870.69
2022-09-28T05:17:38.186Z,95863.28
2022-09-28T05:20:42.296Z,95871.19
2022-09-28T05:23:11.515Z,95877.47
2022-09-28T05:25:39.996Z,95867.50
2022-09-28T05:28:29.601Z,95871.50
2022-09-28T05:31:20.234Z,95865.81
2022-09-28T05:34:05.527Z,95871.34
2022-09-28T05:36:33.168Z,95866.22
2022-09-28T05:39:01.485Z,95859.59
2022-09-28T05:41:31.693Z,95860.88
2022-09-28T05:44:00.647Z,95861.88
2022-09-28T05:46:30.212Z,95859.78
2022-09-28T05:49:00.608Z,95850.78
2022-09-28T05:51:28.625Z,95842.84
2022-09-28T05:53:58.820Z,95836.69
2022-09-28T05:56:31.573Z,95834.06
2022-09-28T05:58:59.237Z,95832.22
2022-09-28T06:01:29.897Z,95835.41
2022-09-28T06:03:59.684Z,95823.50
2022-09-28T06:06:27.347Z,95814.50
2022-09-28T06:08:54.985Z,95809.97
2022-09-28T06:11:45.576Z,95809.44
2022-09-28T06:14:32.527Z,95797.78
2022-09-28T06:17:00.202Z,95782.66
2022-09-28T06:19:28.006Z,95785.56
2022-09-28T06:22:31.156Z,95779.75
2022-09-28T06:25:08.766Z,95784.81
2022-09-28T06:27:37.309Z,95780.31
2022-09-28T06:30:05.230Z,95784.28
2022-09-28T06:32:32.946Z,95773.94
2022-09-28T06:35:00.507Z,95775.28
2022-09-28T06:37:29.016Z,95776.06
2022-09-28T06:39:57.284Z,95776.31
2022-09-28T06:42:25.257Z,95782.44
2022-09-28T06:45:11.666Z,95787.75
2022-09-28T06:48:05.987Z,95787.75
2022-09-28T06:50:42.459Z,95774.75
2022-09-28T06:53:28.955Z,95767.03
2022-09-28T06:56:11.439Z,95763.59
2022-09-28T06:58:39.127Z,95776.59
2022-09-28T07:01:06.963Z,95775.56
2022-09-28T07:03:55.770Z,95778.72
2022-09-28T07:06:47.738Z,95784.03
2022-09-28T07:09:38.153Z,95780.56
2022-09-28T07:12:16.177Z,95779.78
2022-09-28T07:15:05.187Z,95773.16
2022-09-28T07:17:41.745Z,95781.41
2022-09-28T07:20:19.054Z,95775.00
2022-09-28T07:22:53.885Z,95781.66
2022-09-28T07:25:24.248Z,95789.09
2022-09-28T07:28:25.527Z,95798.44
2022-09-28T07:31:12.088Z,95795.75
2022-09-28T07:34:06.004Z,95793.38
2022-09-28T07:36:57.537Z,95795.50
2022-09-28T07:39:25.486Z,95796.81
2022-09-28T07:41:59.611Z,95789.63
2022-09-28T07:44:29.882Z,95783.28
2022-09-28T07:46:58.319Z,95778.22
2022-09-28T07:49:43.267Z,95781.91
2022-09-28T07:52:40.057Z,95779.00
2022-09-28T07:55:19.964Z,95781.41
2022-09-28T07:58:09.407Z,95792.28
2022-09-28T08:01:04.322Z,95792.81
2022-09-28T08:03:32.307Z,95798.13
2022-09-28T08:06:06.106Z,95788.06
2022-09-28T08:08:35.152Z,95795.75
2022-09-28T08:11:03.246Z,95803.72
2022-09-28T08:14:06.087Z,95805.31
2022-09-28T08:17:07.226Z,95809.28
2022-09-28T08:20:08.967Z,95807.72
2022-09-28T08:22:37.316Z,95813.81
2022-09-28T08:25:05.426Z,95806.06
2022-09-28T08:27:33.416Z,95811.88
2022-09-28T08:30:00.968Z,95816.59
2022-09-28T08:32:57.976Z,95833.97
2022-09-28T08:35:37.617Z,95834.25
2022-09-28T08:38:31.040Z,95838.97
2022-09-28T08:41:49.166Z,95844.59
2022-09-28T08:44:25.619Z,95841.69
2022-09-28T08:47:42.766Z,95831.09
2022-09-28T08:51:06.406Z,95827.91
2022-09-28T08:54:09.514Z,95818.59
2022-09-28T08:57:00.436Z,95824.97
2022-09-28T08:59:53.816Z,95827.66
2022-09-28T09:02:36.896Z,95837.50
2022-09-28T09:05:19.260Z,95829.03
2022-09-28T09:08:53.376Z,95829.59
2022-09-28T09:11:32.577Z,95825.63
2022-09-28T09:14:19.427Z,95819.53
2022-09-28T09:17:26.736Z,95818.50
2022-09-28T09:20:04.786Z,95819.84
2022-09-28T09:22:59.866Z,95803.66
2022-09-28T09:25:31.949Z,95804.22
2022-09-28T09:28:02.495Z,95810.84
2022-09-28T09:30:42.966Z,95810.06
2022-09-28T09:33:17.226Z,95796.78
2022-09-28T09:36:38.586Z,95792.53
2022-09-28T09:39:38.196Z,95796.22
2022-09-28T09:42:52.948Z,95788.28
2022-09-28T09:45:46.959Z,95786.16
2022-09-28T09:48:48.526Z,95789.38
2022-09-28T09:51:22.255Z,95786.44
2022-09-28T09:54:00.288Z,95786.19
2022-09-28T09:56:44.117Z,95785.38
2022-09-28T09:59:25.057Z,95789.63
2022-09-28T10:02:11.788Z,95788.31
2022-09-28T10:04:59.505Z,95793.63
2022-09-28T10:08:03.266Z,95793.88
2022-09-28T10:10:56.836Z,95793.09
2022-09-28T10:13:29.385Z,95787.78
2022-09-28T10:16:01.574Z,95778.47
2022-09-28T10:18:47.427Z,95777.66
2022-09-28T10:21:37.757Z,95768.94
2022-09-28T10:24:40.366Z,95774.47
2022-09-28T10:27:14.747Z,95765.75
2022-09-28T10:30:15.106Z,95767.31
2022-09-28T10:32:45.005Z,95764.09
2022-09-28T10:35:18.926Z,95762.75
2022-09-28T10:37:59.878Z,95757.47
2022-09-28T10:41:09.607Z,95749.66
2022-09-28T10:44:07.321Z,95748.47
2022-09-28T10:47:00.267Z,95742.78
2022-09-28T10:49:44.380Z,95743.50
2022-09-28T10:52:36.356Z,95738.69
2022-09-28T10:55:29.516Z,95736.41
2022-09-28T10:57:59.616Z,95740.22
2022-09-28T11:00:49.633Z,95744.78
2022-09-28T11:03:25.768Z,95739.13
2022-09-28T11:05:58.143Z,95751.75
2022-09-28T11:08:30.314Z,95741.06
2022-09-28T11:11:21.182Z,95742.97
2022-09-28T11:14:03.843Z,95748.00
2022-09-28T11:16:36.933Z,95747.25
2022-09-28T11:19:29.783Z,95755.66
2022-09-28T11:21:57.341Z,95757.44
2022-09-28T11:24:34.164Z,95752.44
2022-09-28T11:27:04.181Z,95760.69
2022-09-28T11:29:41.918Z,95761.66
2022-09-28T11:32:44.064Z,95769.97
2022-09-28T11:35:32.251Z,95768.13
2022-09-28T11:38:27.233Z,95786.31
2022-09-28T11:41:39.622Z,95787.31
2022-09-28T11:44:07.625Z,95791.06
2022-09-28T11:47:13.683Z,95789.19
2022-09-28T11:49:56.210Z,95798.94
2022-09-28T11:52:31.932Z,95804.28
2022-09-28T11:55:12.431Z,95803.19
2022-09-28T11:57:45.471Z,95798.03
2022-09-28T12:00:38.344Z,95799.16
2022-09-28T12:03:13.786Z,95806.72
2022-09-28T12:05:51.022Z,95802.03
2022-09-28T12:08:30.743Z,95802.38
2022-09-28T12:11:11.542Z,95804.66
2022-09-28T12:14:00.762Z,95805.03
2022-09-28T12:17:05.846Z,95804.56
2022-09-28T12:19:42.962Z,95799.78
2022-09-28T12:22:34.282Z,95801.28
2022-09-28T12:25:04.046Z,95800.72
2022-09-28T12:28:22.073Z,95803.34
2022-09-28T12:30:50.401Z,95805.50
2022-09-28T12:33:18.061Z,95804.63
2022-09-28T12:36:18.862Z,95804.72
2022-09-28T12:39:21.833Z,95809.94
2022-09-28T12:42:03.673Z,95809.00
2022-09-28T12:44:40.950Z,95804.91
2022-09-28T12:47:16.405Z,95805.06
2022-09-28T12:50:40.243Z,95808.28
2022-09-28T12:53:37.342Z,95810.75
2022-09-28T12:56:22.333Z,95811.16
2022-09-28T12:59:15.040Z,95808.69
2022-09-28T13:02:11.766Z,95811.94
2022-09-28T13:04:46.064Z,95819.63
2022-09-28T13:07:21.132Z,95829.94
2022-09-28T13:09:51.868Z,95823.88
2022-09-28T13:12:31.112Z,95831.06
2022-09-28T13:15:23.773Z,95829.91
2022-09-28T13:18:36.304Z,95841.78
2022-09-28T13:21:26.453Z,95847.94
2022-09-28T13:24:14.316Z,95855.03
2022-09-28T13:26:47.585Z,95852.66
2022-09-28T13:29:17.852Z,95857.78
2022-09-28T13:31:58.345Z,95857.78
2022-09-28T13:34:29.016Z,95873.47
2022-09-28T13:37:17.010Z,95872.91
2022-09-28T13:39:44.502Z,95869.78
2022-09-28T13:42:36.593Z,95874.59
2022-09-28T13:45:22.362Z,95885.91
2022-09-28T13:48:20.506Z,95885.78
2022-09-28T13:51:16.803Z,95883.50
2022-09-28T13:54:07.004Z,95891.03
2022-09-28T13:56:44.294Z,95887.31
2022-09-28T13:59:34.063Z,95892.63
2022-09-28T14:02:37.820Z,95901.34
2022-09-28T14:05:26.671Z,95899.25
2022-09-28T14:08:09.179Z,95902.22
2022-09-28T14:10:51.895Z,95902.38
2022-09-28T14:13:40.821Z,95902.47
2022-09-28T14:16:24.550Z,95908.50
2022-09-28T14:19:15.266Z,95913.25
2022-09-28T14:21:49.793Z,95915.16
2022-09-28T14:24:33.619Z,95916.94
2022-09-28T14:27:03.862Z,95914.22
2022-09-28T14:29:37.911Z,95926.47
2022-09-28T14:32:22.892Z,95920.94
2022-09-28T14:35:01.127Z,95918.84
2022-09-28T14:37:53.553Z,95934.03
2022-09-28T14:41:10.898Z,95921.31
2022-09-28T14:43:57.780Z,95930.09
2022-09-28T14:46:25.480Z,95939.81
2022-09-28T14:48:55.870Z,95935.97
2022-09-28T14:51:35.611Z,95933.66
2022-09-28T14:54:06.203Z,95939.88
2022-09-28T14:56:40.340Z,95941.81
2022-09-28T14:59:17.416Z,95943.75
2022-09-28T15:01:54.360Z,95947.25
2022-09-28T15:04:26.509Z,95955.22
2022-09-28T15:06:54.252Z,95958.69
2022-09-28T15:09:27.590Z,95959.22
2022-09-28T15:12:18.231Z,95964.53
2022-09-28T15:15:03.802Z,95966.66
2022-09-28T15:17:39.990Z,95970.66
2022-09-28T15:20:22.009Z,95978.63
2022-09-28T15:22:53.158Z,95974.09
2022-09-28T15:25:22.262Z,95981.56
2022-09-28T15:27:55.630Z,95981.31
2022-09-28T15:30:23.571Z,95973.56
2022-09-28T15:32:56.909Z,95975.72
2022-09-28T15:35:27.216Z,95986.09
2022-09-28T15:37:55.735Z,95988.75
2022-09-28T15:40:33.626Z,95992.72
2022-09-28T15:43:02.570Z,95999.88
2022-09-28T15:45:38.741Z,95989.22
2022-09-28T15:48:52.279Z,96008.38
2022-09-28T15:51:21.509Z,96006.75
2022-09-28T15:53:51.589Z,96012.63
2022-09-28T15:56:19.153Z,96011.78
2022-09-28T15:59:15.430Z,96011.25
2022-09-28T16:01:44.448Z,96016.03
2022-09-28T16:04:48.171Z,96025.31
2022-09-28T16:07:40.692Z,96026.16
2022-09-28T16:10:14.121Z,96026.91
2022-09-28T16:12:54.452Z,96034.63
2022-09-28T16:15:29.035Z,96042.03
2022-09-28T16:18:03.250Z,96052.69
2022-09-28T16:20:34.259Z,96053.47
2022-09-28T16:23:28.533Z,96059.06
2022-09-28T16:26:00.704Z,96056.41
2022-09-28T16:28:34.686Z,96059.31
2022-09-28T16:31:34.535Z,96051.34
2022-09-28T16:34:16.762Z,96051.66
2022-09-28T16:36:47.312Z,96063.59
2022-09-28T16:39:16.841Z,96063.06
2022-09-28T16:41:50.882Z,96063.03
2022-09-28T16:44:28.588Z,96066.75
2022-09-28T16:46:58.586Z,96075.75
2022-09-28T16:49:26.470Z,96084.25
2022-09-28T16:51:54.214Z,96085.00
2022-09-28T16:54:42.993Z,96085.75
2022-09-28T16:57:13.744Z,96077.25
2022-09-28T16:59:41.419Z,96080.97
2022-09-28T17:02:45.342Z,96087.84
2022-09-28T17:05:08.141Z,96085.47
2022-09-28T17:07:36.035Z,96086.84
2022-09-28T17:10:09.331Z,96088.41
2022-09-28T17:12:36.851Z,96088.84
2022-09-28T17:15:04.572Z,96093.59
2022-09-28T17:17:32.009Z,96094.31
2022-09-28T17:19:59.808Z,96097.69
2022-09-28T17:22:27.332Z,96101.59
2022-09-28T17:24:54.832Z,96099.66
2022-09-28T17:27:22.369Z,96103.91
2022-09-28T17:29:49.802Z,96101.75
2022-09-28T17:32:19.019Z,96104.69
2022-09-28T17:34:55.891Z,96110.72
2022-09-28T17:37:37.684Z,96113.25
2022-09-28T17:40:28.513Z,96114.81
2022-09-28T17:42:57.661Z,96119.06
2022-09-28T17:45:28.584Z,96121.13
2022-09-28T17:47:56.400Z,96116.09
2022-09-28T17:50:35.116Z,96126.94
2022-09-28T17:53:06.562Z,96132.75
2022-09-28T17:55:36.344Z,96132.38
2022-09-28T17:58:23.028Z,96133.31
2022-09-28T18:00:51.783Z,96131.50
2022-09-28T18:03:21.861Z,96131.50
2022-09-28T18:06:06.614Z,96139.94
2022-09-28T18:08:34.930Z,96127.72
2022-09-28T18:11:02.391Z,96127.72
2022-09-28T18:13:29.881Z,96136.13
2022-09-28T18:15:57.394Z,96129.78
2022-09-28T18:18:25.862Z,96127.06
2022-09-28T18:20:53.360Z,96132.31
2022-09-28T18:23:20.852Z,96132.81
2022-09-28T18:25:49.342Z,96134.78
2022-09-28T18:28:16.869Z,96137.09
2022-09-28T18:30:45.684Z,96129.03
2022-09-28T18:33:14.570Z,96128.16
2022-09-28T18:35:51.621Z,96139.25
2022-09-28T18:38:19.500Z,96137.03
2022-09-28T18:40:48.478Z,96141.47
2022-09-28T18:43:16.762Z,96132.66
2022-09-28T18:45:44.219Z,96133.63
2022-09-28T18:48:11.797Z,96139.09
2022-09-28T18:50:42.020Z,96140.38
2022-09-28T18:53:12.637Z,96139.59
2022-09-28T18:55:42.252Z,96139.59
2022-09-28T18:58:11.181Z,96139.03
2022-09-28T19:00:41.180Z,96144.31
2022-09-28T19:03:11.393Z,96144.53
2022-09-28T19:05:43.470Z,96140.56
2022-09-28T19:08:10.991Z,96144.72
2022-09-28T19:10:38.548Z,96147.13
2022-09-28T19:13:06.382Z,96148.97
2022-09-28T19:15:34.780Z,96145.28
2022-09-28T19:18:02.602Z,96147.84
2022-09-28T19:20:30.009Z,96154.41
2022-09-28T19:22:57.882Z,96155.91
2022-09-28T19:25:25.562Z,96153.75
2022-09-28T19:27:53.121Z,96156.16
2022-09-28T19:30:20.522Z,96151.34
2022-09-28T19:32:48.044Z,96156.31
2022-09-28T19:35:15.510Z,96148.06
2022-09-28T19:37:46.741Z,96154.41
2022-09-28T19:40:14.292Z,96158.31
2022-09-28T19:42:41.691Z,96158.06
2022-09-28T19:45:10.975Z,96155.59
2022-09-28T19:47:39.130Z,96160.72
2022-09-28T19:50:07.130Z,96155.44
2022-09-28T19:52:34.572Z,96162.81
2022-09-28T19:55:02.041Z,96164.44
2022-09-28T19:57:31.422Z,96164.91
2022-09-28T20:00:03.183Z,96181.41
2022-09-28T20:02:35.205Z,96165.53
2022-09-28T20:05:03.592Z,96167.06
2022-09-28T20:07:33.150Z,96160.34
2022-09-28T20:10:00.750Z,96175.53
2022-09-28T20:12:28.140Z,96168.09
2022-09-28T20:14:55.712Z,96172.00
2022-09-28T20:17:23.150Z,96176.97
2022-09-28T20:19:51.904Z,96180.88
2022-09-28T20:22:20.163Z,96187.22
2022-09-28T20:24:47.688Z,96193.78
2022-09-28T20:27:15.204Z,96196.69
2022-09-28T20:29:43.214Z,96203.34
2022-09-28T20:32:12.413Z,96209.81
2022-09-28T20:34:39.856Z,96211.66
2022-09-28T20:37:07.282Z,96214.03
2022-09-28T20:39:34.890Z,96219.09
2022-09-28T20:42:02.946Z,96213.81
2022-09-28T20:44:31.102Z,96218.84
2022-09-28T20:46:58.768Z,96215.72
2022-09-28T20:49:28.178Z,96226.56
2022-09-28T20:51:55.656Z,96224.13
2022-09-28T20:54:23.101Z,96232.91
2022-09-28T20:56:50.521Z,96232.31
2022-09-28T20:59:18.251Z,96231.53
2022-09-28T21:01:45.779Z,96239.69
2022-09-28T21:04:13.331Z,96241.53
2022-09-28T21:06:42.341Z,96241.78
2022-09-28T21:09:10.881Z,96242.78
2022-09-28T21:11:39.859Z,96248.88
2022-09-28T21:14:09.721Z,96248.34
2022-09-28T21:16:37.564Z,96248.56
2022-09-28T21:19:05.033Z,96253.84
2022-09-28T21:21:32.590Z,96251.66
2022-09-28T21:24:00.106Z,96245.09
2022-09-28T21:26:29.969Z,96256.00
2022-09-28T21:28:59.963Z,96255.22
2022-09-28T21:31:30.330Z,96258.91
2022-09-28T21:33:58.789Z,96269.94
2022-09-28T21:36:26.438Z,96259.38
2022-09-28T21:38:55.685Z,96269.94
2022-09-28T21:41:24.210Z,96266.50
2022-09-28T21:43:52.548Z,96271.22
2022-09-28T21:46:20.003Z,96271.09
2022-09-28T21:48:51.761Z,96267.34
2022-09-28T21:51:19.619Z,96272.03
2022-09-28T21:53:48.550Z,96269.41
2022-09-28T21:56:16.141Z,96277.56
2022-09-28T21:58:43.579Z,96281.22
2022-09-28T22:01:18.053Z,96269.06
2022-09-28T22:03:48.792Z,96278.25
2022-09-28T22:06:18.512Z,96275.03
2022-09-28T22:08:47.290Z,96277.13
2022-09-28T22:11:17.894Z,96277.94
2022-09-28T22:13:51.441Z,96281.63
2022-09-28T22:16:21.299Z,96285.84
2022-09-28T22:18:49.500Z,96279.91
2022-09-28T22:21:24.867Z,96285.66
2022-09-28T22:23:53.051Z,96297.50
2022-09-28T22:26:23.572Z,96288.97
2022-09-28T22:28:56.593Z,96284.16
2022-09-28T22:31:28.709Z,96287.84
2022-09-28T22:33:56.819Z,96291.03
2022-09-28T22:36:26.024Z,96290.50
2022-09-28T22:38:55.414Z,96287.84
2022-09-28T22:41:23.539Z,96294.72
2022-09-28T22:43:53.106Z,96296.00
2022-09-28T22:46:26.584Z,96290.69
2022-09-28T22:48:56.409Z,96300.47
2022-09-28T22:51:25.878Z,96298.06
2022-09-28T22:53:53.397Z,96295.44
2022-09-28T22:56:20.951Z,96299.78
2022-09-28T22:58:48.483Z,96301.84
2022-09-28T23:01:22.112Z,96305.28
2022-09-28T23:03:51.062Z,96305.28
2022-09-28T23:06:20.910Z,96308.28
2022-09-28T23:08:49.452Z,96307.81
2022-09-28T23:11:17.400Z,96306.56
2022-09-28T23:13:55.589Z,96305.06
2022-09-28T23:16:25.945Z,96308.97
2022-09-28T23:18:54.816Z,96305.63
2022-09-28T23:21:24.024Z,96307.94
2022-09-28T23:23:57.039Z,96303.91
2022-09-28T23:26:30.372Z,96306.31
2022-09-28T23:28:58.839Z,96308.97
2022-09-28T23:31:29.390Z,96306.88
2022-09-28T23:33:58.849Z,96306.78
2022-09-28T23:36:26.654Z,96304.63
2022-09-28T23:38:54.455Z,96311.16
2022-09-28T23:41:21.990Z,96308.97
2022-09-28T23:43:49.512Z,96310.81
2022-09-28T23:46:20.749Z,96308.97
2022-09-28T23:48:49.543Z,96312.16
2022-09-28T23:51:17.251Z,96319.63
2022-09-28T23:53:45.562Z,96316.31
2022-09-28T23:56:14.546Z,96313.09
2022-09-28T23:58:42.450Z,96311.50
